Time;durP1;ratioP1;P1;durP2;ratioP2;P2;SDS_P1;SDS_P2;PMS_P1;PMS_P2;Temp;Humidity;BMP_temperature;BMP_pressure;BME280_temperature;BME280_humidity;BME280_pressure;Samples;Min_cycle;Max_cycle;Signal;HPM_P1;HPM_P2
2022/12/10 00:00:30;;;;;;;;;;;;;;;21.00;28.73;97382.47;5100050;28;994;-80
2022/12/10 00:02:56;;;;;;;;;;;;;;;20.86;28.78;97382.94;5081085;28;1057;-79
2022/12/10 00:05:21;;;;;;;;;;;;;;;20.59;29.12;97389.09;5100732;28;804;-80
2022/12/10 00:07:47;;;;;;;;;;;;;;;20.34;29.77;97387.81;5100198;28;898;-79
2022/12/10 00:10:12;;;;;;;;;;;;;;;20.71;29.18;97377.75;5100048;28;1062;-80
2022/12/10 00:12:37;;;;;;;;;;;;;;;20.88;28.87;97374.78;5099154;28;1914;-80
2022/12/10 00:15:03;;;;;;;;;;;;;;;21.12;28.55;97370.34;5098976;28;845;-79
2022/12/10 00:17:28;;;;;;;;;;;;;;;20.95;28.43;97358.38;5100546;28;881;-80
2022/12/10 00:19:54;;;;;;;;;;;;;;;20.67;28.98;97362.94;5097959;28;986;-80
2022/12/10 00:22:19;;;;;;;;;;;;;;;20.52;29.20;97361.81;5100782;28;1019;-79
2022/12/10 00:24:45;;;;;;;;;;;;;;;20.87;28.61;97356.25;5080404;28;988;-80
2022/12/10 00:27:11;;;;;;;;;;;;;;;20.89;28.60;97351.75;5100555;28;917;-79
2022/12/10 00:29:38;;;;;;;;;;;;;;;21.09;28.25;97348.63;5098131;28;1132;-79
2022/12/10 00:32:05;;;;;;;;;;;;;;;20.85;28.54;97338.97;5099030;28;1985;-80
2022/12/10 00:34:30;;;;;;;;;;;;;;;20.56;28.97;97342.72;5099546;28;922;-80
2022/12/10 00:36:56;;;;;;;;;;;;;;;20.37;29.55;97352.22;5099906;28;1033;-80
2022/12/10 00:39:21;;;;;;;;;;;;;;;20.64;29.13;97349.75;5098532;28;1197;-79
2022/12/10 00:41:47;;;;;;;;;;;;;;;20.79;28.75;97350.84;5098477;28;1337;-79
2022/12/10 00:44:12;;;;;;;;;;;;;;;19.56;28.56;97119.22;5097894;28;950;-80
2022/12/10 00:46:38;;;;;;;;;;;;;;;20.93;28.51;97348.75;5098479;28;842;-79
2022/12/10 00:49:03;;;;;;;;;;;;;;;20.84;28.66;97345.88;5097402;28;970;-78
2022/12/10 00:51:29;;;;;;;;;;;;;;;20.65;28.96;97333.56;5098745;28;1910;-78
2022/12/10 00:53:55;;;;;;;;;;;;;;;20.79;28.94;97338.75;5099083;28;1108;-80
2022/12/10 00:56:23;;;;;;;;;;;;;;;20.87;28.67;97334.41;5099684;28;900;-79
2022/12/10 00:58:48;;;;;;;;;;;;;;;20.97;28.70;97332.47;5096810;28;930;-80
2022/12/10 01:01:24;;;;;;;;;;;;;;;20.88;28.56;97326.72;5098330;28;1094;-80
2022/12/10 01:03:51;;;;;;;;;;;;;;;20.49;29.27;97326.00;5064232;28;1637;-79
2022/12/10 01:06:23;;;;;;;;;;;;;;;20.55;28.94;97324.19;5098289;28;917;-79
2022/12/10 01:08:49;;;;;;;;;;;;;;;20.70;28.99;97314.00;5097212;28;1062;-80
2022/12/10 01:11:15;;;;;;;;;;;;;;;20.84;28.74;97314.75;5081429;28;1952;-79
2022/12/10 01:13:41;;;;;;;;;;;;;;;20.97;28.77;97315.50;5096715;28;988;-79
2022/12/10 01:16:07;;;;;;;;;;;;;;;21.14;28.24;97318.94;5098692;28;1245;-79
2022/12/10 01:18:33;;;;;;;;;;;;;;;20.84;28.74;97326.06;5096486;28;1046;-79
2022/12/10 01:21:02;;;;;;;;;;;;;;;20.43;29.38;97322.16;5099508;28;914;-79
2022/12/10 01:23:28;;;;;;;;;;;;;;;20.35;29.67;97317.97;5096862;28;949;-79
2022/12/10 01:25:53;;;;;;;;;;;;;;;20.52;29.20;97311.78;5097557;28;1204;-79
2022/12/10 01:28:19;;;;;;;;;;;;;;;20.87;28.84;97311.00;5079151;28;1026;-79
2022/12/10 01:30:44;;;;;;;;;;;;;;;21.17;28.08;97309.56;5098142;28;1189;-80
2022/12/10 01:33:10;;;;;;;;;;;;;;;21.06;28.30;97309.94;5058281;28;1979;-79
2022/12/10 01:35:36;;;;;;;;;;;;;;;21.12;28.20;97305.28;5059680;28;874;-79
2022/12/10 01:38:01;;;;;;;;;;;;;;;21.01;28.19;97304.88;5075727;28;1171;-79
2022/12/10 01:40:27;;;;;;;;;;;;;;;20.71;28.74;97298.59;5043163;28;1161;-79
2022/12/10 01:42:52;;;;;;;;;;;;;;;20.54;29.15;97300.78;5076176;28;1032;-79
2022/12/10 01:45:18;;;;;;;;;;;;;;;20.47;29.40;97300.25;5076138;28;940;-79
2022/12/10 01:47:44;;;;;;;;;;;;;;;20.74;28.72;97289.22;5059684;28;1044;-79
2022/12/10 01:50:09;;;;;;;;;;;;;;;20.97;28.34;97287.22;5075728;28;987;-80
2022/12/10 01:52:36;;;;;;;;;;;;;;;20.99;28.53;97279.09;5075968;28;1910;-79
2022/12/10 01:55:01;;;;;;;;;;;;;;;20.64;28.99;97270.59;5058275;28;929;-80
2022/12/10 01:57:27;;;;;;;;;;;;;;;20.70;28.95;97280.06;5076383;28;1001;-79
2022/12/10 01:59:59;;;;;;;;;;;;;;;20.42;29.40;97281.03;5058803;28;1314;-79
2022/12/10 02:02:43;;;;;;;;;;;;;;;20.72;28.98;97277.56;5043385;28;1158;-80
2022/12/10 02:05:12;;;;;;;;;;;;;;;20.99;28.25;97284.75;5095992;28;973;-79
2022/12/10 02:07:57;;;;;;;;;;;;;;;21.25;27.90;97274.91;5098412;28;1025;-80
2022/12/10 02:10:35;;;;;;;;;;;;;;;21.04;28.26;97281.34;5097336;28;1676;-79
2022/12/10 02:13:06;;;;;;;;;;;;;;;20.76;28.57;97278.25;5079704;28;1897;-80
2022/12/10 02:15:33;;;;;;;;;;;;;;;20.44;29.12;97264.38;5097137;28;1219;-79
2022/12/10 02:18:02;;;;;;;;;;;;;;;20.61;28.98;97260.19;5080128;28;1153;-80
2022/12/10 02:20:36;;;;;;;;;;;;;;;20.92;28.57;97270.84;5080665;28;965;-80
2022/12/10 02:23:11;;;;;;;;;;;;;;;21.16;28.00;97271.19;5096554;28;1705;-80
2022/12/10 02:25:48;;;;;;;;;;;;;;;21.14;28.21;97263.19;5097378;28;883;-79
2022/12/10 02:28:28;;;;;;;;;;;;;;;20.77;28.30;97262.84;5096573;28;931;-79
2022/12/10 02:30:56;;;;;;;;;;;;;;;20.49;29.03;97246.88;5080809;28;1181;-79
2022/12/10 02:33:21;;;;;;;;;;;;;;;20.45;29.10;97257.47;5096154;28;1901;-79
2022/12/10 02:35:48;;;;;;;;;;;;;;;20.66;29.03;97261.66;5081189;28;1174;-80
2022/12/10 02:38:24;;;;;;;;;;;;;;;21.06;28.11;97267.50;5082563;28;1130;-79
2022/12/10 02:40:50;;;;;;;;;;;;;;;21.07;28.32;97264.22;5101324;28;1141;-79
2022/12/10 02:43:16;;;;;;;;;;;;;;;20.83;28.40;97257.44;5061411;28;1289;-79
2022/12/10 02:45:43;;;;;;;;;;;;;;;20.65;28.87;97260.84;5046627;28;1081;-79
2022/12/10 02:48:09;;;;;;;;;;;;;;;20.58;28.82;97249.81;5045523;28;1311;-80
2022/12/10 02:50:39;;;;;;;;;;;;;;;20.71;28.94;97247.72;5062483;28;1292;-80
2022/12/10 02:53:04;;;;;;;;;;;;;;;20.91;28.38;97244.59;5041796;28;1965;-79
2022/12/10 02:55:31;;;;;;;;;;;;;;;21.14;28.19;97240.56;5042535;28;1184;-80
2022/12/10 02:58:00;;;;;;;;;;;;;;;21.12;28.15;97236.59;5021815;28;1307;-80
2022/12/10 03:00:26;;;;;;;;;;;;;;;20.84;28.58;97244.09;5021985;28;1586;-80
2022/12/10 03:03:00;;;;;;;;;;;;;;;20.22;29.63;97231.19;5022724;28;1341;-79
2022/12/10 03:05:29;;;;;;;;;;;;;;;20.55;29.14;97234.53;5038524;28;991;-80
2022/12/10 03:08:05;;;;;;;;;;;;;;;20.75;28.63;97225.78;5021787;28;1198;-80
2022/12/10 03:10:35;;;;;;;;;;;;;;;21.10;28.12;97233.44;5022708;28;1228;-80
2022/12/10 03:13:01;;;;;;;;;;;;;;;21.14;27.94;97229.25;5021785;28;1910;-79
2022/12/10 03:15:27;;;;;;;;;;;;;;;20.95;28.12;97227.50;5041416;28;934;-79
2022/12/10 03:17:53;;;;;;;;;;;;;;;20.63;29.02;97235.09;5041982;28;961;-80
2022/12/10 03:20:19;;;;;;;;;;;;;;;20.40;29.26;97227.75;5058300;28;1069;-80
2022/12/10 03:22:45;;;;;;;;;;;;;;;20.70;28.97;97240.50;5041610;28;1158;-79
2022/12/10 03:25:11;;;;;;;;;;;;;;;21.06;28.22;97240.00;5060377;28;873;-79
2022/12/10 03:27:37;;;;;;;;;;;;;;;21.03;28.14;97246.56;5061494;28;953;-80
2022/12/10 03:30:03;;;;;;;;;;;;;;;21.18;28.14;97246.06;5097086;28;920;-80
2022/12/10 03:32:28;;;;;;;;;;;;;;;20.97;28.55;97247.63;5083156;28;1944;-79
2022/12/10 03:34:54;;;;;;;;;;;;;;;20.64;28.87;97231.03;5100198;28;954;-79
2022/12/10 03:37:19;;;;;;;;;;;;;;;20.62;29.08;97227.84;5101268;28;922;-79
2022/12/10 03:39:45;;;;;;;;;;;;;;;20.74;28.78;97229.84;5099310;28;866;-80
2022/12/10 03:42:10;;;;;;;;;;;;;;;20.96;28.46;97234.75;5101238;28;1405;-79
2022/12/10 03:44:36;;;;;;;;;;;;;;;21.08;28.39;97236.72;5077143;28;1021;-79
2022/12/10 03:47:02;;;;;;;;;;;;;;;20.78;28.80;97241.84;5057710;28;967;-79
2022/12/10 03:49:28;;;;;;;;;;;;;;;20.55;29.30;97234.53;5056217;28;954;-81
2022/12/10 03:51:54;;;;;;;;;;;;;;;20.51;29.09;97238.72;5041112;28;1910;-80
2022/12/10 03:54:19;;;;;;;;;;;;;;;20.65;29.13;97241.06;5056884;28;782;-81
2022/12/10 03:56:45;;;;;;;;;;;;;;;20.86;28.72;97241.56;5037705;28;974;-81
2022/12/10 03:59:10;;;;;;;;;;;;;;;21.12;28.18;97243.03;5036187;28;1445;-81
2022/12/10 04:01:35;;;;;;;;;;;;;;;20.84;28.54;97244.09;5036705;28;1301;-81
2022/12/10 04:04:02;;;;;;;;;;;;;;;20.66;29.13;97239.81;5014574;28;1329;-82
2022/12/10 04:06:28;;;;;;;;;;;;;;;20.51;29.07;97227.44;5015216;28;1384;-80
2022/12/10 04:08:53;;;;;;;;;;;;;;;20.72;29.05;97231.53;5028183;28;1096;-82
2022/12/10 04:11:18;;;;;;;;;;;;;;;21.00;28.45;97224.09;5037820;28;1895;-80
2022/12/10 04:16:28;;;;;;;;;;;;;;;21.06;28.29;97222.25;5054622;28;1001;-79
2022/12/10 04:18:54;;;;;;;;;;;;;;;20.79;28.95;97220.78;5074101;28;962;-80
2022/12/10 04:26:53;;;;;;;;;;;;;;;20.94;28.79;97220.28;5082184;28;883;-79
2022/12/10 04:29:20;;;;;;;;;;;;;;;20.99;28.53;97211.22;5118428;28;955;-79
2022/12/10 04:31:45;;;;;;;;;;;;;;;21.08;28.16;97217.69;5119707;28;1898;-80
2022/12/10 04:34:11;;;;;;;;;;;;;;;21.06;28.23;97222.25;5119607;28;945;-80
2022/12/10 04:36:36;;;;;;;;;;;;;;;20.96;28.23;97220.59;5119418;28;884;-80
2022/12/10 04:39:01;;;;;;;;;;;;;;;20.65;28.95;97221.28;5119712;28;856;-80
2022/12/10 04:41:27;;;;;;;;;;;;;;;20.49;29.26;97210.16;5119920;28;969;-79
2022/12/10 04:43:54;;;;;;;;;;;;;;;20.81;28.95;97212.63;5118963;28;878;-80
2022/12/10 04:46:19;;;;;;;;;;;;;;;21.05;28.31;97217.84;5120606;28;934;-80
2022/12/10 04:48:45;;;;;;;;;;;;;;;21.04;28.53;97219.91;5117620;28;961;-79
2022/12/10 04:51:10;;;;;;;;;;;;;;;20.72;28.58;97221.03;5120640;28;1970;-79
2022/12/10 04:53:36;;;;;;;;;;;;;;;20.64;28.87;97216.09;5118169;28;864;-79
2022/12/10 04:56:01;;;;;;;;;;;;;;;20.57;28.90;97217.13;5120201;28;953;-80
2022/12/10 04:58:30;;;;;;;;;;;;;;;20.74;28.96;97218.53;5118927;28;958;-79
2022/12/10 05:01:02;;;;;;;;;;;;;;;20.72;28.70;97215.38;5119855;28;851;-79
2022/12/10 05:03:28;;;;;;;;;;;;;;;21.14;28.31;97212.25;5118581;28;877;-79
2022/12/10 05:05:53;;;;;;;;;;;;;;;21.09;28.04;97215.69;5118504;28;977;-79
2022/12/10 05:08:19;;;;;;;;;;;;;;;20.46;29.31;97219.50;5118608;28;899;-79
2022/12/10 05:10:44;;;;;;;;;;;;;;;20.41;29.23;97223.69;5118665;28;1330;-79
2022/12/10 05:13:10;;;;;;;;;;;;;;;20.29;29.54;97228.13;5118733;28;1990;-80
2022/12/10 05:15:37;;;;;;;;;;;;;;;20.73;28.73;97228.28;5119382;28;969;-80
2022/12/10 05:18:03;;;;;;;;;;;;;;;20.96;28.64;97223.44;5118478;28;933;-79
2022/12/10 05:20:28;;;;;;;;;;;;;;;21.06;28.48;97227.91;5119360;27;912;-79
2022/12/10 05:25:52;;;;;;;;;;;;;;;20.71;28.52;97225.09;5119227;28;931;-79
2022/12/10 05:28:21;;;;;;;;;;;;;;;20.43;29.37;97226.06;5118270;28;904;-79
2022/12/10 05:30:47;;;;;;;;;;;;;;;20.67;29.06;97230.09;5118465;28;959;-79
2022/12/10 05:33:12;;;;;;;;;;;;;;;20.81;28.74;97226.75;5118477;28;1961;-80
2022/12/10 05:35:37;;;;;;;;;;;;;;;21.15;28.25;97230.81;5119300;28;930;-79
2022/12/10 05:38:03;;;;;;;;;;;;;;;21.04;28.32;97227.59;5117579;28;971;-79
2022/12/10 05:40:29;;;;;;;;;;;;;;;20.58;28.71;97234.88;5118902;28;936;-79
2022/12/10 05:42:54;;;;;;;;;;;;;;;20.59;28.89;97228.78;5118368;28;990;-79
2022/12/10 05:45:19;;;;;;;;;;;;;;;20.57;29.02;97231.25;5118778;28;948;-80
2022/12/10 05:47:45;;;;;;;;;;;;;;;20.88;28.75;97227.75;5118822;28;856;-79
2022/12/10 05:50:10;;;;;;;;;;;;;;;20.92;28.25;97222.75;5118269;28;1131;-80
2022/12/10 05:52:36;;;;;;;;;;;;;;;21.10;28.22;97234.22;5099770;28;1913;-79
2022/12/10 05:55:01;;;;;;;;;;;;;;;21.07;28.00;97235.13;5117710;28;951;-79
2022/12/10 05:57:26;;;;;;;;;;;;;;;20.52;28.99;97235.47;5118907;28;908;-79
2022/12/10 05:59:52;;;;;;;;;;;;;;;20.62;28.87;97227.84;5118928;28;831;-79
2022/12/10 06:02:17;;;;;;;;;;;;;;;20.72;28.97;97226.69;5118844;28;888;-79
2022/12/10 06:04:43;;;;;;;;;;;;;;;20.89;28.42;97235.81;5116774;28;958;-79
2022/12/10 06:07:09;;;;;;;;;;;;;;;20.91;28.38;97238.16;5118987;28;850;-80
2022/12/10 06:09:35;;;;;;;;;;;;;;;20.89;28.39;97223.69;5117921;28;1523;-79
2022/12/10 06:12:00;;;;;;;;;;;;;;;20.71;28.67;97219.44;5119192;28;1906;-79
2022/12/10 06:14:26;;;;;;;;;;;;;;;20.58;28.67;97227.19;5099081;28;960;-79
2022/12/10 06:16:51;;;;;;;;;;;;;;;21.07;28.16;97229.47;5100275;28;959;-79
2022/12/10 06:19:17;;;;;;;;;;;;;;;20.99;28.27;97228.19;5099595;28;941;-79
2022/12/10 06:21:42;;;;;;;;;;;;;;;21.04;28.37;97230.41;5100430;28;951;-79
2022/12/10 06:24:07;;;;;;;;;;;;;;;21.08;27.95;97236.72;5082320;28;967;-79
2022/12/10 06:26:33;;;;;;;;;;;;;;;20.48;29.08;97236.84;5099993;28;852;-79
2022/12/10 06:29:00;;;;;;;;;;;;;;;20.55;28.70;97234.53;5099237;28;1131;-79
2022/12/10 06:31:25;;;;;;;;;;;;;;;20.54;28.90;97240.66;5100120;28;1963;-79
2022/12/10 06:33:51;;;;;;;;;;;;;;;20.80;28.53;97242.16;5098594;28;914;-80
2022/12/10 06:36:17;;;;;;;;;;;;;;;20.81;28.54;97235.25;5100113;28;1061;-79
2022/12/10 06:38:42;;;;;;;;;;;;;;;20.93;28.27;97241.31;5098298;28;934;-79
2022/12/10 06:41:08;;;;;;;;;;;;;;;21.21;28.13;97228.97;5100376;28;1109;-79
2022/12/10 06:43:34;;;;;;;;;;;;;;;20.76;28.30;97235.84;5098168;28;909;-79
2022/12/10 06:46:03;;;;;;;;;;;;;;;20.59;28.94;97237.25;5110739;28;897;-80
2022/12/10 06:48:28;;;;;;;;;;;;;;;20.41;28.96;97234.19;5121673;28;856;-79
2022/12/10 06:50:55;;;;;;;;;;;;;;;20.51;29.23;97239.53;5122441;28;897;-79
2022/12/10 06:53:20;;;;;;;;;;;;;;;20.87;28.60;97238.28;5121066;28;1921;-79
2022/12/10 06:55:45;;;;;;;;;;;;;;;21.06;28.16;97250.53;5122231;28;951;-80
2022/12/10 06:58:11;;;;;;;;;;;;;;;21.07;27.91;97240.78;5121761;28;966;-79
2022/12/10 07:00:36;;;;;;;;;;;;;;;20.67;28.61;97247.03;5121907;28;897;-80
2022/12/10 07:03:02;;;;;;;;;;;;;;;20.59;28.57;97245.72;5102087;28;940;-79
2022/12/10 07:05:28;;;;;;;;;;;;;;;20.62;28.80;97236.31;5121687;28;882;-79
2022/12/10 07:07:54;;;;;;;;;;;;;;;20.99;28.19;97242.31;5120174;28;889;-79
2022/12/10 07:10:19;;;;;;;;;;;;;;;21.16;28.12;97226.72;5120833;28;1019;-79
2022/12/10 07:12:46;;;;;;;;;;;;;;;21.08;28.01;97225.41;5120677;28;1988;-79
2022/12/10 07:15:12;;;;;;;;;;;;;;;20.76;28.77;97230.19;5120875;28;969;-80
2022/12/10 07:17:37;;;;;;;;;;;;;;;20.52;28.77;97226.19;5121833;28;937;-79
2022/12/10 07:20:03;;;;;;;;;;;;;;;20.34;29.20;97225.97;5121141;28;909;-80
2022/12/10 07:22:29;;;;;;;;;;;;;;;20.69;28.89;97230.44;5085319;28;1127;-80
2022/12/10 07:24:54;;;;;;;;;;;;;;;20.93;28.38;97230.00;5119471;28;955;-79
2022/12/10 07:27:19;;;;;;;;;;;;;;;21.11;28.21;97230.16;5121920;28;952;-79
2022/12/10 07:29:45;;;;;;;;;;;;;;;20.95;28.19;97233.16;5120974;28;946;-79
2022/12/10 07:32:10;;;;;;;;;;;;;;;20.74;28.64;97238.34;5121633;28;1909;-79
2022/12/10 07:34:36;;;;;;;;;;;;;;;20.63;28.96;97232.28;5114388;28;1187;-79
2022/12/10 07:37:01;;;;;;;;;;;;;;;20.63;29.04;97229.44;5111732;28;1322;-80
2022/12/10 07:39:27;;;;;;;;;;;;;;;20.86;28.66;97230.25;5108441;28;1306;-81
2022/12/10 07:41:52;;;;;;;;;;;;;;;20.82;28.65;97219.06;5090755;28;1304;-80
2022/12/10 07:44:20;;;;;;;;;;;;;;;20.98;28.34;97220.91;5113581;28;1231;-81
2022/12/10 07:46:46;;;;;;;;;;;;;;;20.62;28.86;97216.53;5112122;28;1220;-80
2022/12/10 07:49:11;;;;;;;;;;;;;;;20.57;29.02;97208.63;5120631;28;896;-81
2022/12/10 07:51:37;;;;;;;;;;;;;;;20.51;28.79;97216.91;5121410;28;1940;-80
2022/12/10 07:54:02;;;;;;;;;;;;;;;20.73;29.00;97211.31;5120314;28;862;-81
2022/12/10 07:56:28;;;;;;;;;;;;;;;21.06;28.36;97216.59;5121086;28;874;-80
2022/12/10 07:58:53;;;;;;;;;;;;;;;21.07;28.11;97201.19;5120164;28;911;-80
2022/12/10 08:01:22;;;;;;;;;;;;;;;21.10;28.08;97205.94;5120666;28;823;-80
2022/12/10 08:03:47;;;;;;;;;;;;;;;20.65;28.63;97204.31;5119729;28;1121;-80
2022/12/10 08:06:15;;;;;;;;;;;;;;;20.60;28.89;97202.09;5121240;28;912;-81
2022/12/10 08:08:41;;;;;;;;;;;;;;;20.69;28.68;97199.34;5119449;28;924;-80
2022/12/10 08:11:06;;;;;;;;;;;;;;;20.91;28.42;97199.34;5120019;28;1123;-80
2022/12/10 08:13:32;;;;;;;;;;;;;;;21.13;28.19;97199.34;5118322;28;1897;-80
2022/12/10 08:16:04;;;;;;;;;;;;;;;21.12;28.28;97199.81;5120478;28;887;-80
2022/12/10 08:18:30;;;;;;;;;;;;;;;20.92;28.30;97202.97;5118383;28;976;-80
2022/12/10 08:20:55;;;;;;;;;;;;;;;20.48;29.15;97194.44;5120610;28;876;-80
2022/12/10 08:23:21;;;;;;;;;;;;;;;20.48;29.00;97191.63;5119123;28;950;-80
2022/12/10 08:25:46;;;;;;;;;;;;;;;20.41;29.26;97191.81;5120904;28;887;-80
2022/12/10 08:28:12;;;;;;;;;;;;;;;21.07;28.12;97196.31;5119282;28;915;-80
2022/12/10 08:30:37;;;;;;;;;;;;;;;21.08;28.32;97192.25;5120860;28;978;-80
2022/12/10 08:33:03;;;;;;;;;;;;;;;21.01;28.06;97186.88;5100301;28;1980;-81
2022/12/10 08:35:28;;;;;;;;;;;;;;;20.92;28.42;97194.50;5119233;28;934;-81
2022/12/10 08:37:53;;;;;;;;;;;;;;;20.63;28.77;97184.22;5120894;28;973;-80
2022/12/10 08:40:19;;;;;;;;;;;;;;;20.38;29.12;97184.28;5119620;28;870;-80
2022/12/10 08:42:44;;;;;;;;;;;;;;;20.53;29.06;97180.53;5119938;28;887;-80
2022/12/10 08:45:10;;;;;;;;;;;;;;;20.84;28.69;97174.19;5119257;28;911;-81
2022/12/10 08:47:35;;;;;;;;;;;;;;;20.96;28.31;97178.19;5110414;28;1520;-80
2022/12/10 08:50:01;;;;;;;;;;;;;;;21.14;28.35;97175.50;5087676;28;1287;-81
2022/12/10 08:52:29;;;;;;;;;;;;;;;20.89;28.46;97161.50;5108322;28;1934;-81
2022/12/10 08:54:54;;;;;;;;;;;;;;;20.63;29.02;97161.59;5081551;28;1295;-81
2022/12/10 08:57:19;;;;;;;;;;;;;;;20.48;29.09;97161.31;5107563;28;1228;-81
2022/12/10 08:59:45;;;;;;;;;;;;;;;20.91;28.67;97158.97;5103516;28;1361;-81
2022/12/10 09:02:10;;;;;;;;;;;;;;;20.89;28.38;97162.28;5099597;28;930;-81
2022/12/10 09:04:36;;;;;;;;;;;;;;;21.08;28.19;97166.00;5098285;28;898;-81
2022/12/10 09:07:01;;;;;;;;;;;;;;;21.02;28.26;97159.38;5098178;28;919;-81
2022/12/10 09:09:27;;;;;;;;;;;;;;;20.65;28.71;97159.09;5098188;28;993;-81
2022/12/10 09:11:52;;;;;;;;;;;;;;;20.73;28.79;97151.94;5099207;28;1971;-81
2022/12/10 09:14:18;;;;;;;;;;;;;;;20.45;29.22;97144.47;5098429;28;962;-81
2022/12/10 09:16:44;;;;;;;;;;;;;;;20.63;28.75;97136.16;5080288;28;1044;-81
2022/12/10 09:19:10;;;;;;;;;;;;;;;21.04;28.20;97156.88;5098311;28;871;-81
2022/12/10 09:21:35;;;;;;;;;;;;;;;21.13;28.24;97154.09;5099300;28;932;-81
2022/12/10 09:24:01;;;;;;;;;;;;;;;20.95;28.69;97143.47;5096936;28;913;-81
2022/12/10 09:26:26;;;;;;;;;;;;;;;21.03;28.16;97146.78;5098820;28;959;-81
2022/12/10 09:28:52;;;;;;;;;;;;;;;21.02;28.18;97153.72;5096765;28;860;-80
2022/12/10 09:31:18;;;;;;;;;;;;;;;20.62;29.15;97137.41;5098030;28;1044;-81
2022/12/10 09:33:43;;;;;;;;;;;;;;;20.50;29.21;97141.06;5097897;28;1977;-81
2022/12/10 09:36:09;;;;;;;;;;;;;;;20.37;29.52;97134.66;5099218;28;858;-80
2022/12/10 09:38:36;;;;;;;;;;;;;;;20.87;28.48;97130.03;5097582;28;960;-81
2022/12/10 09:41:23;;;;;;;;;;;;;;;20.96;28.41;97127.28;5099297;28;902;-81
2022/12/10 09:43:49;;;;;;;;;;;;;;;21.05;28.34;97114.00;5054630;28;1008;-81
2022/12/10 09:46:18;;;;;;;;;;;;;;;20.94;28.63;97118.47;5055720;28;908;-80
2022/12/10 09:49:06;;;;;;;;;;;;;;;20.48;29.37;97095.53;5037930;28;874;-80
2022/12/10 09:51:33;;;;;;;;;;;;;;;20.28;29.58;97093.78;5016082;28;1989;-80
2022/12/10 09:53:59;;;;;;;;;;;;;;;20.71;28.78;97092.25;4976469;28;1012;-81
2022/12/10 09:56:26;;;;;;;;;;;;;;;20.90;28.59;97095.19;4961512;28;1030;-80
2022/12/10 09:58:51;;;;;;;;;;;;;;;21.05;28.30;97099.06;4960513;28;909;-81
2022/12/10 10:01:18;;;;;;;;;;;;;;;20.97;28.67;97094.91;4976969;28;1010;-81
2022/12/10 10:03:43;;;;;;;;;;;;;;;20.75;28.69;97090.06;4960214;28;1032;-81
2022/12/10 10:06:09;;;;;;;;;;;;;;;20.47;29.43;97074.97;4977943;28;1092;-81
2022/12/10 10:08:40;;;;;;;;;;;;;;;20.32;29.53;97085.19;4960253;28;993;-81
2022/12/10 10:11:05;;;;;;;;;;;;;;;20.93;28.49;97085.78;4977326;28;1207;-81
2022/12/10 10:13:33;;;;;;;;;;;;;;;20.97;28.62;97072.28;4975790;28;1902;-81
2022/12/10 10:16:28;;;;;;;;;;;;;;;21.00;28.54;97066.50;4977541;28;1641;-81
2022/12/10 10:19:01;;;;;;;;;;;;;;;20.79;28.61;97056.03;4918483;29;1116;-81
2022/12/10 10:21:28;;;;;;;;;;;;;;;20.63;29.09;97059.84;4947264;29;987;-81
2022/12/10 10:23:53;;;;;;;;;;;;;;;20.67;28.78;97048.41;4957158;29;1164;-80
2022/12/10 10:26:19;;;;;;;;;;;;;;;20.66;28.86;97041.97;4957979;29;1066;-80
2022/12/10 10:28:45;;;;;;;;;;;;;;;20.92;28.55;97053.09;4979949;28;1286;-81
2022/12/10 10:31:12;;;;;;;;;;;;;;;20.99;28.42;97047.19;5012457;28;1171;-81
2022/12/10 10:33:47;;;;;;;;;;;;;;;20.87;28.77;97046.00;5018279;28;1906;-81
2022/12/10 10:36:13;;;;;;;;;;;;;;;20.63;29.21;97034.41;5035962;28;979;-81
2022/12/10 10:38:38;;;;;;;;;;;;;;;20.37;29.40;97035.78;5034733;28;896;-81
2022/12/10 10:41:04;;;;;;;;;;;;;;;20.66;29.09;97035.53;5036212;28;1003;-81
2022/12/10 10:43:32;;;;;;;;;;;;;;;21.05;28.47;97039.66;5018206;28;1074;-81
2022/12/10 10:46:00;;;;;;;;;;;;;;;21.12;28.52;97038.59;5036349;28;960;-81
2022/12/10 10:48:26;;;;;;;;;;;;;;;20.99;28.29;97035.88;5034802;28;1037;-81
2022/12/10 10:50:52;;;;;;;;;;;;;;;20.52;29.46;97020.69;5019341;28;902;-81
2022/12/10 10:53:22;;;;;;;;;;;;;;;20.32;29.94;97033.56;5001812;28;1906;-81
2022/12/10 10:55:47;;;;;;;;;;;;;;;20.55;29.28;97022.59;5074845;28;1244;-80
2022/12/10 10:58:17;;;;;;;;;;;;;;;20.93;28.63;97029.22;5097028;28;896;-81
2022/12/10 11:00:43;;;;;;;;;;;;;;;21.06;28.30;97012.94;5078930;28;899;-81
2022/12/10 11:03:08;;;;;;;;;;;;;;;20.98;28.47;97017.31;5078126;28;1360;-81
2022/12/10 11:05:34;;;;;;;;;;;;;;;20.68;28.99;97011.22;5078925;28;1073;-80
2022/12/10 11:08:00;;;;;;;;;;;;;;;20.65;29.22;97017.00;5078532;28;855;-81
2022/12/10 11:10:25;;;;;;;;;;;;;;;20.66;29.13;97013.69;5078702;28;1008;-81
2022/12/10 11:13:00;;;;;;;;;;;;;;;20.86;28.88;97018.19;5061952;28;1971;-81
2022/12/10 11:15:44;;;;;;;;;;;;;;;21.04;28.53;97015.47;5078721;28;893;-81
2022/12/10 11:18:30;;;;;;;;;;;;;;;20.85;28.93;97016.63;5078210;28;949;-81
2022/12/10 11:21:02;;;;;;;;;;;;;;;20.60;29.18;97018.38;5079158;28;1059;-82
2022/12/10 11:23:29;;;;;;;;;;;;;;;20.60;29.38;97009.91;5060981;28;955;-81
2022/12/10 11:25:54;;;;;;;;;;;;;;;21.04;28.55;97009.81;5079049;28;945;-81
2022/12/10 11:28:38;;;;;;;;;;;;;;;21.08;28.49;96999.13;5077945;28;813;-81
2022/12/10 11:31:04;;;;;;;;;;;;;;;21.22;28.17;97009.88;5084501;28;877;-81
2022/12/10 11:33:51;;;;;;;;;;;;;;;20.67;29.25;96991.88;5098651;28;1909;-81
2022/12/10 11:36:16;;;;;;;;;;;;;;;20.60;29.23;96997.81;5101201;28;972;-80
2022/12/10 11:38:48;;;;;;;;;;;;;;;20.51;29.67;96995.69;5099802;28;951;-81
2022/12/10 11:41:17;;;;;;;;;;;;;;;20.92;28.90;96988.06;5100299;28;898;-81
2022/12/10 11:44:03;;;;;;;;;;;;;;;21.00;28.65;96992.19;5100283;28;897;-81
2022/12/10 11:46:28;;;;;;;;;;;;;;;21.10;28.55;96984.53;5038372;28;944;-81
2022/12/10 11:49:00;;;;;;;;;;;;;;;20.74;28.89;96980.28;5037395;28;1015;-81
2022/12/10 11:51:45;;;;;;;;;;;;;;;20.59;29.26;96973.63;5038598;28;1902;-81
2022/12/10 11:54:17;;;;;;;;;;;;;;;20.93;28.82;96975.50;5037311;28;1084;-81
2022/12/10 11:56:43;;;;;;;;;;;;;;;21.07;28.66;96974.91;5038673;28;1043;-81
2022/12/10 11:59:47;;;;;;;;;;;;;;;21.17;28.29;96976.53;5037527;28;897;-81
2022/12/10 12:02:18;;;;;;;;;;;;;;;20.97;28.64;96982.59;4999384;28;991;-81
2022/12/10 12:04:44;;;;;;;;;;;;;;;20.77;28.85;96968.81;4998414;28;1016;-81
2022/12/10 12:07:12;;;;;;;;;;;;;;;20.74;29.06;96972.59;4998575;28;1042;-81
2022/12/10 12:09:56;;;;;;;;;;;;;;;20.97;28.82;96976.13;4980740;28;1085;-81
2022/12/10 12:12:21;;;;;;;;;;;;;;;21.05;28.81;96983.09;4998539;28;1981;-81
2022/12/10 12:14:51;;;;;;;;;;;;;;;21.12;28.68;96982.78;4981336;28;1313;-81
2022/12/10 12:17:16;;;;;;;;;;;;;;;20.91;28.67;96990.09;4998198;28;1079;-81
2022/12/10 12:19:43;;;;;;;;;;;;;;;20.70;29.14;96982.47;4997627;28;1045;-81
2022/12/10 12:22:13;;;;;;;;;;;;;;;20.40;29.54;96995.28;5014506;28;942;-81
2022/12/10 12:24:38;;;;;;;;;;;;;;;20.59;29.37;96994.19;5036101;28;1049;-81
2022/12/10 12:27:22;;;;;;;;;;;;;;;20.76;29.02;96995.53;5020974;28;959;-81
2022/12/10 12:30:08;;;;;;;;;;;;;;;20.97;28.85;96993.09;5020521;28;990;-81
2022/12/10 12:32:42;;;;;;;;;;;;;;;21.13;28.71;96987.19;5024409;28;1902;-81
2022/12/10 12:35:10;;;;;;;;;;;;;;;20.71;28.96;96969.91;5036963;28;970;-81
2022/12/10 12:37:37;;;;;;;;;;;;;;;20.63;29.16;96963.75;5038113;28;930;-81
2022/12/10 12:40:03;;;;;;;;;;;;;;;20.56;29.46;96958.38;5036836;28;918;-81
2022/12/10 12:42:30;;;;;;;;;;;;;;;20.96;28.97;96957.59;5037263;28;1035;-81
2022/12/10 12:44:59;;;;;;;;;;;;;;;20.95;28.62;96950.38;5036319;28;1097;-81
2022/12/10 12:47:24;;;;;;;;;;;;;;;21.21;28.50;96946.06;5037303;28;953;-81
2022/12/10 12:49:49;;;;;;;;;;;;;;;20.89;28.84;96943.75;5036699;28;1129;-81
2022/12/10 12:52:27;;;;;;;;;;;;;;;20.72;28.97;96944.00;5020230;28;1977;-81
2022/12/10 12:54:54;;;;;;;;;;;;;;;20.51;29.47;96945.63;5019929;28;1235;-81
2022/12/10 12:57:25;;;;;;;;;;;;;;;20.96;28.77;96946.28;5037344;28;1037;-81
2022/12/10 12:59:56;;;;;;;;;;;;;;;20.99;28.81;96940.50;5036355;28;913;-81
2022/12/10 13:02:23;;;;;;;;;;;;;;;21.12;28.47;96943.19;5020111;28;1126;-81
2022/12/10 13:04:49;;;;;;;;;;;;;;;20.73;28.88;96928.63;5036115;28;968;-81
2022/12/10 13:07:15;;;;;;;;;;;;;;;20.58;29.22;96927.63;5036841;28;926;-81
2022/12/10 13:09:47;;;;;;;;;;;;;;;20.52;29.27;96923.78;5046826;28;1227;-81
2022/12/10 13:12:21;;;;;;;;;;;;;;;20.87;28.75;96926.47;5060329;28;1906;-81
2022/12/10 13:14:59;;;;;;;;;;;;;;;20.88;28.61;96933.69;5075834;28;961;-80